New Braunfels, TX (78132)

1:42 AM CDT on September 22, 2014 (GMT -0500)
Oakwood Estates | Change Station
CLOSE
Current Station
Personal Weather Station
Location: New Braunfels, TX
Elevation: 758 ft
Nearby Weather Stations

Elev 758 ft 29.72 °N, 98.14 °W | Updated 24 seconds ago

Clear
Clear
72.1 °F
Feels Like 71 °F
N
0.0
Wind Variable Wind from ENE
Gusts 0.0 mph

Today
High -- | Low -- °F
--% Chance of Precip.
Yesterday
High -- | Low -- °F
Precip. -- in
7:20 AM 7:29 PM
Waning Crescent, 4% visible
Pressure 30.04 in
Visibility 10.0 miles
Clouds Clear
Heat Index 71 °F
Dew Point 68 °F
Humidity 86%
Rainfall 0.00 in
Snow Depth Not available.
UV 0 out of 12
Pollen 9.80 out of 12
Ozone Good
PM2.5 Moderate
Flu Activity Not available.
METAR KBAZ 220551Z AUTO 36003KT 10SM CLR 22/18 A3006 RMK AO2 SLP171 T02170183 10306 20217 403390217 50005

More Conditions Fewer Conditions

Pressure 30.04 in
Visibility 10.0 miles
Clouds Clear
Heat Index 71 °F
Dew Point 68 °F
Humidity 86%
Rainfall 0.00 in
Snow Depth Not available.
UV 0 out of 12
Pollen 9.80 out of 12
Ozone Good
PM2.5 Moderate
Flu Activity Not available.
METAR KBAZ 220551Z AUTO 36003KT 10SM CLR 22/18 A3006 RMK AO2 SLP171 T02170183 10306 20217 403390217 50005

More Conditions Fewer Conditions

10-Day Weather Forecast

Almanac

Astronomy

Sep. 22, 2014 Rise Set
Actual Time 7:20 AM CDT 7:29 PM CDT
Civil Twilight 6:57 AM CDT 7:52 PM CDT
Nautical Twilight 6:29 AM CDT 8:20 PM CDT
Astronomical Twilight 6:01 AM CDT 8:48 PM CDT
Moon 5:55 AM CDT 6:34 PM CDT
Length of Visible Light 12h 55m
Length of Day
12h 08m
Tomorrow will be 1m 47s shorter.
Waning Crescent, 4% of the Moon is Illuminated
Today
Waning Crescent
Sep 24
New
Oct 1
First Quarter
Oct 8
Full
Oct 15
Last Quarter

Today's Extremes

State Highs State Lows

Community

WunderPhotos

Upload Photos

1,755,392 photos uploaded!

Nearby

Air Quality

  Air Quality AQ Index Pollutant
Yesterday Good
OZONE
Yesterday Good
PM2.5
Current Moderate
PM2.5
Current Good
OZONE
Monday Moderate
OZONE
Monday Good
PM10
Tuesday Moderate
OZONE
Tuesday Good
PM10

Snow Depth

Station Depth Elevation
No new snow has been reported.

Earthquake Activity

City Distance Mag. Time & Date
No recent earthquake activity has been reported nearby.
Minimum magnitude displayed is 2.5.

Coastal Water Temperatures

Place Temperature
No Stations Reporting

Nearby Weather Stations